Time;durP1;ratioP1;P1;durP2;ratioP2;P2;SDS_P1;SDS_P2;PMS_P1;PMS_P2;Temp;Humidity;BMP_temperature;BMP_pressure;BME280_temperature;BME280_humidity;BME280_pressure;Samples;Min_cycle;Max_cycle;Signal;HPM_P1;HPM_P2
2023/09/16 00:00:06;;;;;;;2.90;2.20;;;;;24.20;100382.00;;;;2578346;22;20230;-62
2023/09/16 00:01:07;;;;;;;3.00;2.30;;;;;24.20;100381.00;;;;2576134;22;20195;-62
2023/09/16 00:02:07;;;;;;;2.50;2.30;;;;;24.20;100379.00;;;;2588333;22;20661;-62
2023/09/16 00:03:07;;;;;;;2.80;2.60;;;;;24.20;100379.00;;;;2588029;22;20199;-62
2023/09/16 00:04:09;;;;;;;2.57;2.03;;;;;24.20;100375.00;;;;2591682;22;20202;-62
2023/09/16 00:05:10;;;;;;;2.03;1.83;;;;;24.20;100376.00;;;;2591185;22;20258;-62
2023/09/16 00:06:12;;;;;;;2.63;2.07;;;;;24.20;100378.00;;;;2576845;22;20541;-62
2023/09/16 00:07:13;;;;;;;2.40;2.00;;;;;24.30;100375.00;;;;2590541;22;20448;-62
2023/09/16 00:08:14;;;;;;;2.30;2.03;;;;;24.20;100343.00;;;;2591265;22;20426;-62
2023/09/16 00:09:14;;;;;;;2.20;1.80;;;;;24.20;100378.00;;;;2590552;22;20190;-62
2023/09/16 00:10:15;;;;;;;2.90;2.23;;;;;24.20;100367.00;;;;2591451;22;20199;-62
2023/09/16 00:11:15;;;;;;;2.40;2.20;;;;;24.20;100369.00;;;;2576531;22;20237;-62
2023/09/16 00:12:16;;;;;;;2.03;1.80;;;;;24.20;100362.00;;;;2590810;22;20226;-62
2023/09/16 00:13:16;;;;;;;2.47;2.03;;;;;24.20;100364.00;;;;2591708;22;21095;-62
2023/09/16 00:14:21;;;;;;;2.20;2.00;;;;;24.20;100367.00;;;;2590819;22;20203;-62
2023/09/16 00:15:22;;;;;;;2.20;2.00;;;;;24.20;100378.00;;;;2591650;22;20192;-62
2023/09/16 00:16:22;;;;;;;2.57;2.03;;;;;24.20;100373.00;;;;2576229;22;20188;-62
2023/09/16 00:17:22;;;;;;;2.40;2.17;;;;;24.20;100371.00;;;;2591186;22;20899;-62
2023/09/16 00:18:23;;;;;;;2.20;2.00;;;;;24.20;100365.00;;;;2591488;22;20681;-62
2023/09/16 00:19:23;;;;;;;2.20;2.00;;;;;24.20;100369.00;;;;2590005;22;20211;-62
2023/09/16 00:20:26;;;;;;;2.20;2.00;;;;;24.20;100374.00;;;;2591803;22;20215;-62
2023/09/16 00:21:26;;;;;;;2.10;1.90;;;;;24.20;100380.00;;;;2575886;22;20203;-62
2023/09/16 00:22:28;;;;;;;2.47;1.97;;;;;24.20;100375.00;;;;2591801;22;20195;-62
2023/09/16 00:23:28;;;;;;;2.47;2.28;;;;;24.20;100378.00;;;;2590886;22;20199;-62
2023/09/16 00:24:29;;;;;;;2.20;2.00;;;;;24.20;100373.00;;;;2591582;22;20226;-62
2023/09/16 00:25:29;;;;;;;2.30;2.03;;;;;24.20;100376.00;;;;2591000;22;20203;-62
2023/09/16 00:26:29;;;;;;;2.67;2.13;;;;;24.20;100363.00;;;;2575417;22;20199;-62
2023/09/16 00:27:30;;;;;;;2.23;1.97;;;;;24.20;100369.00;;;;2576226;23;20261;-62
2023/09/16 00:28:35;;;;;;;2.43;2.23;;;;;24.20;100365.00;;;;2576383;23;20219;-62
2023/09/16 00:29:36;;;;;;;2.50;2.30;;;;;24.20;100383.00;;;;2577947;23;20436;-62
2023/09/16 00:30:36;;;;;;;2.03;1.80;;;;;24.20;100366.00;;;;2577611;22;20191;-62
2023/09/16 00:31:36;;;;;;;2.00;1.77;;;;;24.20;100367.00;;;;2576727;22;20629;-62
2023/09/16 00:32:36;;;;;;;2.20;2.00;;;;;24.20;100363.00;;;;2591012;22;20580;-62
2023/09/16 00:33:37;;;;;;;3.20;2.20;;;;;24.20;100365.00;;;;2590965;22;20218;-62
2023/09/16 00:34:37;;;;;;;2.23;2.03;;;;;24.20;100364.00;;;;2578235;23;20204;-62
2023/09/16 00:35:38;;;;;;;2.70;2.33;;;;;24.20;100373.00;;;;2564825;23;20638;-62
2023/09/16 00:36:38;;;;;;;2.40;2.13;;;;;24.20;100361.00;;;;2563537;23;20200;-62
2023/09/16 00:37:38;;;;;;;2.87;1.80;;;;;24.20;100361.00;;;;2589918;22;20653;-62
2023/09/16 00:38:39;;;;;;;2.57;2.37;;;;;24.20;100359.00;;;;2590072;22;20876;-62
2023/09/16 00:39:39;;;;;;;2.20;2.00;;;;;24.20;100361.00;;;;2591107;22;20195;-62
2023/09/16 00:40:39;;;;;;;2.23;2.03;;;;;24.20;100355.00;;;;2590716;22;20398;-62
2023/09/16 00:41:40;;;;;;;2.47;2.27;;;;;24.20;100349.00;;;;2563133;23;20266;-62
2023/09/16 00:42:40;;;;;;;3.20;1.70;;;;;24.20;100397.00;;;;2564985;23;20196;-62
2023/09/16 00:43:41;;;;;;;2.20;2.00;;;;;24.20;100357.00;;;;2578137;23;20702;-62
2023/09/16 00:44:41;;;;;;;2.00;1.80;;;;;24.20;100357.00;;;;2590912;22;20262;-62
2023/09/16 00:45:42;;;;;;;2.23;1.90;;;;;24.20;100351.00;;;;2591129;22;20266;-63
2023/09/16 00:46:42;;;;;;;2.30;2.10;;;;;24.20;100348.00;;;;2565910;22;20202;-66
2023/09/16 00:47:42;;;;;;;2.20;1.97;;;;;24.20;100354.00;;;;2564434;23;20200;-64
2023/09/16 00:48:45;;;;;;;2.47;1.87;;;;;24.20;100358.00;;;;2559786;23;20201;-64
2023/09/16 00:49:46;;;;;;;2.58;2.38;;;;;24.20;100349.00;;;;2577401;23;20192;-62
2023/09/16 00:50:46;;;;;;;2.20;2.00;;;;;24.20;100346.00;;;;2563779;22;20192;-62
2023/09/16 00:51:46;;;;;;;2.90;2.03;;;;;24.20;100349.00;;;;2577409;23;20438;-62
2023/09/16 00:52:50;;;;;;;2.13;1.93;;;;;24.20;100273.00;;;;2565360;23;20213;-62
2023/09/16 00:53:50;;;;;;;2.45;2.25;;;;;24.20;100344.00;;;;2552764;23;20232;-62
2023/09/16 00:54:53;;;;;;;3.10;2.70;;;;;24.20;100337.00;;;;2541115;23;20571;-62
2023/09/16 00:55:54;;;;;;;2.38;2.13;;;;;24.20;100332.00;;;;2551806;22;20197;-62
2023/09/16 00:56:54;;;;;;;2.20;1.93;;;;;24.20;100341.00;;;;2573834;23;20658;-62
2023/09/16 00:57:54;;;;;;;2.27;2.00;;;;;24.20;100333.00;;;;2577220;23;20540;-62
2023/09/16 00:58:58;;;;;;;2.53;2.10;;;;;24.20;100339.00;;;;2576625;23;20879;-62
2023/09/16 00:59:58;;;;;;;2.30;2.00;;;;;24.20;100338.00;;;;2565989;23;20193;-62
2023/09/16 01:00:58;;;;;;;2.63;2.23;;;;;24.20;100323.00;;;;2550744;23;20687;-62
2023/09/16 01:01:59;;;;;;;2.30;1.90;;;;;24.20;100340.00;;;;2563530;23;20189;-62
2023/09/16 01:02:59;;;;;;;2.47;2.07;;;;;24.20;100337.00;;;;2552980;23;20198;-62
2023/09/16 01:03:59;;;;;;;2.07;1.83;;;;;24.20;100343.00;;;;2553139;23;20556;-62
2023/09/16 01:05:03;;;;;;;2.00;1.80;;;;;24.20;100336.00;;;;2576939;23;20246;-62
2023/09/16 01:06:04;;;;;;;2.30;2.10;;;;;24.20;100347.00;;;;2563448;23;21765;-62
2023/09/16 01:07:05;;;;;;;2.55;2.13;;;;;24.20;100348.00;;;;2565099;23;20825;-62
2023/09/16 01:08:05;;;;;;;2.43;2.03;;;;;24.20;100344.00;;;;2564984;23;20189;-62
2023/09/16 01:09:08;;;;;;;2.60;2.23;;;;;24.20;100343.00;;;;2576674;23;20192;-62
2023/09/16 01:10:11;;;;;;;2.67;2.10;;;;;24.20;100348.00;;;;2590561;22;20199;-62
2023/09/16 01:11:12;;;;;;;1.77;1.67;;;;;24.20;100341.00;;;;2574608;22;20211;-62
2023/09/16 01:12:12;;;;;;;2.50;2.03;;;;;24.20;100341.00;;;;2577417;23;20196;-62
2023/09/16 01:13:13;;;;;;;2.60;2.13;;;;;24.20;100263.00;;;;2578072;23;20207;-62
2023/09/16 01:14:13;;;;;;;2.27;2.07;;;;;24.20;100337.00;;;;2576363;23;20862;-66
2023/09/16 01:15:15;;;;;;;2.23;2.03;;;;;24.20;100315.00;;;;2564979;23;20266;-63
2023/09/16 01:16:49;;;;;;;2.10;1.90;;;;;24.20;100338.00;;;;2538435;23;20197;-62
2023/09/16 01:17:59;;;;;;;2.35;2.15;;;;;24.20;100341.00;;;;2579147;22;20226;-62
2023/09/16 01:19:05;;;;;;;2.10;1.90;;;;;24.20;100344.00;;;;2563853;22;20722;-62
2023/09/16 01:20:10;;;;;;;2.60;2.40;;;;;24.20;100344.00;;;;2556402;23;20197;-62
2023/09/16 01:21:10;;;;;;;2.33;2.13;;;;;24.20;100337.00;;;;2563455;22;20211;-62
2023/09/16 01:22:11;;;;;;;2.93;1.80;;;;;24.20;100334.00;;;;2577971;23;20196;-62
2023/09/16 01:23:11;;;;;;;2.33;2.13;;;;;24.20;100337.00;;;;2565108;23;20683;-62
2023/09/16 01:24:15;;;;;;;2.50;2.30;;;;;24.20;100345.00;;;;2565094;23;20672;-62
2023/09/16 01:25:16;;;;;;;2.22;2.00;;;;;24.20;100340.00;;;;2577937;22;20196;-62
2023/09/16 01:26:16;;;;;;;2.60;2.40;;;;;24.20;100342.00;;;;2562593;23;20301;-62
2023/09/16 01:27:16;;;;;;;2.30;2.10;;;;;24.20;100342.00;;;;2577486;23;20203;-62
2023/09/16 01:28:17;;;;;;;2.20;2.00;;;;;24.20;100357.00;;;;2588118;22;20196;-62
2023/09/16 01:29:18;;;;;;;2.53;2.07;;;;;24.20;100342.00;;;;2590345;22;20195;-62
2023/09/16 01:30:18;;;;;;;2.47;1.85;;;;;24.20;100341.00;;;;2565053;23;20323;-63
2023/09/16 01:31:18;;;;;;;2.30;2.03;;;;;24.20;100346.00;;;;2538325;23;20259;-62
2023/09/16 01:32:21;;;;;;;2.60;2.10;;;;;24.20;100338.00;;;;2565084;23;20262;-63
2023/09/16 01:33:23;;;;;;;1.92;1.70;;;;;24.20;100323.00;;;;2565162;23;20520;-62
2023/09/16 01:34:27;;;;;;;2.37;2.10;;;;;24.20;100339.00;;;;2577755;23;20192;-62
2023/09/16 01:35:29;;;;;;;2.35;2.15;;;;;24.20;100344.00;;;;2562550;23;20439;-62
2023/09/16 01:36:29;;;;;;;2.50;2.30;;;;;24.20;100346.00;;;;2551463;23;20220;-62
2023/09/16 01:37:30;;;;;;;2.27;2.00;;;;;24.20;100335.00;;;;2564431;23;20193;-62
2023/09/16 01:38:32;;;;;;;2.10;1.80;;;;;24.20;100310.00;;;;2539274;23;20205;-62
2023/09/16 01:39:32;;;;;;;2.00;1.80;;;;;24.20;100323.00;;;;2553351;23;20719;-62
2023/09/16 01:40:33;;;;;;;2.20;2.00;;;;;24.20;100333.00;;;;2564757;23;20303;-62
2023/09/16 01:41:38;;;;;;;2.00;1.80;;;;;24.20;100401.00;;;;2538547;23;20205;-62
2023/09/16 01:42:38;;;;;;;2.50;2.30;;;;;24.20;100341.00;;;;2541703;23;20845;-62
2023/09/16 01:43:39;;;;;;;2.30;2.10;;;;;24.20;100343.00;;;;2553783;23;20218;-62
2023/09/16 01:44:39;;;;;;;2.60;2.23;;;;;23.80;100338.00;;;;2564774;23;20420;-62
2023/09/16 01:45:43;;;;;;;2.30;2.10;;;;;24.20;100337.00;;;;2577998;23;20196;-62
2023/09/16 01:46:43;;;;;;;2.42;2.20;;;;;24.20;100340.00;;;;2557602;23;20678;-62
2023/09/16 01:47:45;;;;;;;2.70;2.37;;;;;24.20;100339.00;;;;2576774;23;20196;-62
2023/09/16 01:48:45;;;;;;;2.28;2.08;;;;;24.20;100340.00;;;;2576714;23;20639;-63
2023/09/16 01:49:45;;;;;;;2.57;2.17;;;;;24.20;100326.00;;;;2577347;22;20219;-63
2023/09/16 01:50:46;;;;;;;2.30;2.10;;;;;24.20;100337.00;;;;2561494;22;20193;-63
2023/09/16 01:51:46;;;;;;;1.90;1.70;;;;;24.20;100333.00;;;;2577210;23;20198;-63
2023/09/16 01:52:46;;;;;;;2.63;2.00;;;;;24.20;100334.00;;;;2591165;22;20226;-63
2023/09/16 01:53:47;;;;;;;2.57;2.00;;;;;24.20;100336.00;;;;2590890;22;20854;-62
2023/09/16 01:54:47;;;;;;;2.53;2.07;;;;;24.20;100334.00;;;;2590043;22;20286;-63
2023/09/16 01:55:47;;;;;;;3.10;2.00;;;;;24.10;100325.00;;;;2576551;22;20191;-63
2023/09/16 01:56:48;;;;;;;2.10;1.83;;;;;24.20;100335.00;;;;2590615;22;20199;-62
2023/09/16 01:57:48;;;;;;;2.40;2.20;;;;;24.20;100355.00;;;;2591000;22;20661;-62
2023/09/16 01:58:48;;;;;;;2.30;2.10;;;;;24.20;100340.00;;;;2589138;22;20699;-62
2023/09/16 01:59:49;;;;;;;3.80;2.40;;;;;24.20;100325.00;;;;2591245;22;20199;-63
2023/09/16 02:00:50;;;;;;;1.80;1.70;;;;;24.20;100323.00;;;;2575830;22;20199;-62
2023/09/16 02:01:50;;;;;;;2.13;1.93;;;;;24.20;100326.00;;;;2577138;23;20423;-63
2023/09/16 02:02:51;;;;;;;2.10;1.90;;;;;24.20;100331.00;;;;2577905;23;20204;-62
2023/09/16 02:03:51;;;;;;;2.53;2.27;;;;;24.20;100336.00;;;;2590638;22;20257;-62
2023/09/16 02:04:52;;;;;;;2.30;2.10;;;;;24.20;100322.00;;;;2591419;22;20529;-62
2023/09/16 02:05:53;;;;;;;2.30;2.10;;;;;24.20;100323.00;;;;2573478;22;20206;-63
2023/09/16 02:06:53;;;;;;;2.13;1.93;;;;;24.20;100322.00;;;;2590238;22;20199;-62
2023/09/16 02:07:53;;;;;;;2.10;1.90;;;;;24.20;100325.00;;;;2591107;22;20184;-62
2023/09/16 02:08:54;;;;;;;2.07;1.73;;;;;24.20;100322.00;;;;2586261;22;20195;-63
2023/09/16 02:09:54;;;;;;;2.23;2.03;;;;;24.20;100325.00;;;;2591178;22;20199;-62
2023/09/16 02:10:54;;;;;;;2.27;2.07;;;;;24.20;100324.00;;;;2560396;22;20916;-63
2023/09/16 02:11:55;;;;;;;2.97;1.90;;;;;24.20;100322.00;;;;2577454;23;20202;-62
2023/09/16 02:12:55;;;;;;;2.10;1.90;;;;;24.20;100318.00;;;;2591204;22;20192;-62
2023/09/16 02:13:55;;;;;;;2.30;2.00;;;;;24.20;100325.00;;;;2590628;22;20187;-63
2023/09/16 02:14:56;;;;;;;2.03;1.70;;;;;24.20;100323.00;;;;2591170;22;20529;-63
2023/09/16 02:15:56;;;;;;;2.13;1.90;;;;;24.20;100323.00;;;;2570216;22;20270;-61
2023/09/16 02:16:56;;;;;;;3.03;2.00;;;;;24.10;100315.00;;;;2590271;22;20621;-62
2023/09/16 02:17:57;;;;;;;6.50;1.93;;;;;24.20;100321.00;;;;2576953;23;20933;-62
2023/09/16 02:18:57;;;;;;;2.77;2.17;;;;;24.20;100320.00;;;;2575409;23;20494;-62
2023/09/16 02:19:57;;;;;;;2.00;1.80;;;;;24.20;100319.00;;;;2577192;23;20295;-62
2023/09/16 02:20:58;;;;;;;1.93;1.80;;;;;24.20;100319.00;;;;2549768;23;20231;-62
2023/09/16 02:21:58;;;;;;;2.27;2.03;;;;;24.20;100315.00;;;;2578081;23;20203;-62
2023/09/16 02:23:00;;;;;;;1.90;1.80;;;;;23.80;100319.00;;;;2590611;22;20187;-62
2023/09/16 02:24:00;;;;;;;2.10;1.90;;;;;24.10;100317.00;;;;2577756;23;20215;-62
2023/09/16 02:25:01;;;;;;;2.20;2.00;;;;;24.20;100311.00;;;;2577116;23;20674;-62
2023/09/16 02:26:01;;;;;;;2.13;1.93;;;;;24.10;100316.00;;;;2576328;22;20510;-62
2023/09/16 02:27:02;;;;;;;2.60;2.20;;;;;24.10;100315.00;;;;2577036;23;20192;-62
2023/09/16 02:28:02;;;;;;;2.20;2.00;;;;;24.10;100317.00;;;;2576459;22;20184;-62
2023/09/16 02:29:03;;;;;;;2.27;2.07;;;;;24.10;100312.00;;;;2587069;22;20572;-61
2023/09/16 02:30:04;;;;;;;2.77;1.87;;;;;24.10;100310.00;;;;2590375;22;20266;-62
2023/09/16 02:31:04;;;;;;;2.40;2.10;;;;;24.10;100312.00;;;;2572758;22;20201;-62
2023/09/16 02:32:04;;;;;;;2.50;2.10;;;;;24.10;100308.00;;;;2589828;22;20430;-62
2023/09/16 02:33:05;;;;;;;2.87;2.20;;;;;24.10;100319.00;;;;2590196;22;20207;-62
2023/09/16 02:34:05;;;;;;;2.30;2.10;;;;;24.10;100314.00;;;;2591248;22;20195;-62
2023/09/16 02:35:05;;;;;;;2.07;1.87;;;;;24.20;100310.00;;;;2590468;22;20199;-62
2023/09/16 02:36:06;;;;;;;2.30;2.10;;;;;24.10;100313.00;;;;2575974;22;20230;-61
2023/09/16 02:37:06;;;;;;;2.17;1.97;;;;;24.10;100306.00;;;;2589779;22;20225;-62
2023/09/16 02:38:07;;;;;;;2.23;1.97;;;;;24.10;100315.00;;;;2590101;22;20200;-62
2023/09/16 02:39:07;;;;;;;2.30;2.10;;;;;24.10;100315.00;;;;2575919;23;20192;-62
2023/09/16 02:40:08;;;;;;;1.93;1.77;;;;;24.10;100310.00;;;;2577648;23;20231;-62
2023/09/16 02:41:08;;;;;;;2.80;2.40;;;;;24.10;100304.00;;;;2558127;22;20203;-62
2023/09/16 02:42:08;;;;;;;2.27;2.07;;;;;24.10;100312.00;;;;2577341;23;20299;-63
2023/09/16 02:43:09;;;;;;;2.10;1.90;;;;;24.10;100351.00;;;;2564968;23;20217;-62
2023/09/16 02:44:09;;;;;;;2.00;1.80;;;;;24.10;100310.00;;;;2551814;23;20189;-62
2023/09/16 02:45:10;;;;;;;2.63;1.97;;;;;24.10;100309.00;;;;2575077;23;20665;-62
2023/09/16 02:46:10;;;;;;;2.43;2.20;;;;;24.10;100306.00;;;;2575685;22;20522;-62
2023/09/16 02:47:11;;;;;;;2.07;1.87;;;;;24.10;100312.00;;;;2590724;22;20191;-62
2023/09/16 02:48:11;;;;;;;2.10;1.83;;;;;23.60;100310.00;;;;2577501;23;20193;-62
2023/09/16 02:49:12;;;;;;;2.47;2.10;;;;;24.10;100304.00;;;;2563388;23;20189;-62
2023/09/16 02:50:12;;;;;;;2.57;2.23;;;;;24.10;100310.00;;;;2562546;23;20250;-62
2023/09/16 02:51:12;;;;;;;2.40;1.93;;;;;24.10;100313.00;;;;2562426;22;20203;-62
2023/09/16 02:52:14;;;;;;;2.20;1.93;;;;;24.10;100307.00;;;;2590983;22;20215;-62
2023/09/16 02:53:15;;;;;;;2.10;1.90;;;;;24.10;100302.00;;;;2590141;22;20203;-62
2023/09/16 02:54:16;;;;;;;2.90;2.10;;;;;24.10;100307.00;;;;2577875;23;20427;-62
2023/09/16 02:55:16;;;;;;;2.60;2.40;;;;;24.10;100297.00;;;;2577704;23;20224;-62
2023/09/16 02:56:16;;;;;;;2.23;1.93;;;;;24.10;100303.00;;;;2569494;22;20652;-64
2023/09/16 02:57:17;;;;;;;2.40;2.20;;;;;24.10;100311.00;;;;2590709;22;20195;-63
2023/09/16 02:58:17;;;;;;;1.97;1.80;;;;;24.10;100315.00;;;;2590640;22;20612;-62
2023/09/16 02:59:18;;;;;;;2.27;2.07;;;;;24.10;100151.00;;;;2589964;22;20270;-62
2023/09/16 03:00:18;;;;;;;2.40;2.20;;;;;24.10;100215.00;;;;2576946;23;20859;-62
2023/09/16 03:01:18;;;;;;;2.10;1.90;;;;;24.10;100299.00;;;;2549576;23;20284;-62
2023/09/16 03:02:19;;;;;;;2.40;2.07;;;;;24.10;100307.00;;;;2564627;23;20283;-62
2023/09/16 03:03:19;;;;;;;2.03;1.83;;;;;24.10;100310.00;;;;2564649;23;20205;-62
2023/09/16 03:04:19;;;;;;;2.70;1.83;;;;;24.10;100312.00;;;;2577706;23;20279;-63
2023/09/16 03:05:20;;;;;;;2.00;1.80;;;;;24.10;100308.00;;;;2590454;22;20192;-62
2023/09/16 03:06:21;;;;;;;2.50;2.30;;;;;24.10;100299.00;;;;2562879;23;20192;-62
2023/09/16 03:07:22;;;;;;;3.00;1.88;;;;;24.10;100305.00;;;;2564606;23;20224;-62
2023/09/16 03:08:22;;;;;;;2.30;2.10;;;;;24.10;100303.00;;;;2577245;22;20196;-62
2023/09/16 03:09:23;;;;;;;2.30;2.10;;;;;24.10;100308.00;;;;2589904;22;20195;-62
2023/09/16 03:10:23;;;;;;;1.73;1.60;;;;;24.10;100302.00;;;;2576502;23;20196;-62
2023/09/16 03:11:23;;;;;;;1.73;1.63;;;;;24.10;100304.00;;;;2559750;22;20196;-62
2023/09/16 03:12:24;;;;;;;2.37;1.70;;;;;24.10;100305.00;;;;2590384;22;20249;-63
2023/09/16 03:13:24;;;;;;;1.87;1.67;;;;;24.10;100297.00;;;;2576053;22;20223;-62
2023/09/16 03:14:25;;;;;;;2.13;1.93;;;;;24.10;100308.00;;;;2590137;22;20203;-62
2023/09/16 03:15:25;;;;;;;2.13;1.83;;;;;24.10;100313.00;;;;2590422;22;20202;-62
2023/09/16 03:16:25;;;;;;;2.47;2.10;;;;;24.10;100305.00;;;;2576157;22;20638;-62
2023/09/16 03:17:26;;;;;;;2.03;1.83;;;;;24.10;100310.00;;;;2589986;22;20638;-62
2023/09/16 03:18:27;;;;;;;1.90;1.80;;;;;24.10;100301.00;;;;2589978;22;20890;-62
2023/09/16 03:19:28;;;;;;;2.27;2.00;;;;;24.10;100307.00;;;;2588104;22;20203;-62
2023/09/16 03:20:28;;;;;;;1.80;1.70;;;;;24.10;100303.00;;;;2591188;22;20196;-62
2023/09/16 03:21:29;;;;;;;2.43;1.97;;;;;24.10;100320.00;;;;2575435;22;20220;-62
2023/09/16 03:22:29;;;;;;;2.13;1.93;;;;;24.10;100148.00;;;;2577159;23;20279;-62
2023/09/16 03:23:29;;;;;;;1.90;1.70;;;;;24.10;100300.00;;;;2577542;23;20594;-62
2023/09/16 03:24:30;;;;;;;2.13;1.93;;;;;24.10;100297.00;;;;2590201;22;20541;-62
2023/09/16 03:25:30;;;;;;;2.07;1.87;;;;;24.10;100300.00;;;;2591107;22;20642;-62
2023/09/16 03:26:30;;;;;;;2.37;2.10;;;;;24.10;100298.00;;;;2561520;23;20661;-62
2023/09/16 03:27:31;;;;;;;2.07;1.87;;;;;24.10;100292.00;;;;2577373;23;20196;-62
2023/09/16 03:28:31;;;;;;;2.43;2.00;;;;;24.10;100293.00;;;;2589208;22;20196;-62
2023/09/16 03:29:32;;;;;;;2.30;2.10;;;;;24.10;100293.00;;;;2589612;22;20195;-62
2023/09/16 03:30:32;;;;;;;2.10;1.90;;;;;24.10;100299.00;;;;2584925;22;20188;-62
2023/09/16 03:31:32;;;;;;;2.77;2.50;;;;;24.10;100288.00;;;;2561687;22;20196;-62
2023/09/16 03:32:33;;;;;;;2.20;2.00;;;;;24.10;100296.00;;;;2577573;23;20647;-62
2023/09/16 03:33:33;;;;;;;2.17;1.97;;;;;24.10;100286.00;;;;2577084;23;20682;-62
2023/09/16 03:34:33;;;;;;;2.40;2.20;;;;;24.10;100290.00;;;;2565193;23;20201;-62
2023/09/16 03:35:34;;;;;;;2.27;2.07;;;;;24.10;100304.00;;;;2565022;23;21032;-62
2023/09/16 03:36:35;;;;;;;2.30;2.10;;;;;24.10;100299.00;;;;2561686;23;20553;-62
2023/09/16 03:37:35;;;;;;;2.27;1.80;;;;;24.10;100295.00;;;;2590313;22;20426;-62
2023/09/16 03:38:43;;;;;;;2.60;1.83;;;;;24.10;100289.00;;;;2588993;22;20854;-62
2023/09/16 03:39:44;;;;;;;2.20;2.00;;;;;24.10;100288.00;;;;2564891;23;20220;-62
2023/09/16 03:40:44;;;;;;;2.13;1.93;;;;;24.10;100286.00;;;;2566007;22;20196;-62
2023/09/16 03:41:44;;;;;;;2.37;1.90;;;;;24.10;100289.00;;;;2576066;22;20195;-62
2023/09/16 03:42:45;;;;;;;2.27;2.07;;;;;24.10;100285.00;;;;2590707;22;20270;-62
2023/09/16 03:43:45;;;;;;;2.07;1.70;;;;;24.10;100283.00;;;;2590356;22;20195;-62
2023/09/16 03:44:45;;;;;;;2.67;2.20;;;;;24.10;100286.00;;;;2590946;22;20192;-62
2023/09/16 03:45:46;;;;;;;3.40;1.67;;;;;24.10;100285.00;;;;2582070;22;20211;-63
2023/09/16 03:46:48;;;;;;;2.37;1.93;;;;;24.10;100288.00;;;;2585623;22;20192;-62
2023/09/16 03:47:48;;;;;;;2.00;1.80;;;;;24.10;100288.00;;;;2589269;22;20199;-62
2023/09/16 03:48:48;;;;;;;2.43;2.17;;;;;24.10;100124.00;;;;2589940;22;20537;-62
2023/09/16 03:49:49;;;;;;;2.23;2.03;;;;;24.10;100284.00;;;;2590100;22;20532;-63
2023/09/16 03:50:49;;;;;;;2.40;2.17;;;;;24.10;100274.00;;;;2575673;22;20862;-62
2023/09/16 03:51:49;;;;;;;2.30;1.80;;;;;24.10;100289.00;;;;2577602;23;20204;-62
2023/09/16 03:52:50;;;;;;;2.10;1.90;;;;;24.10;100286.00;;;;2577228;23;20231;-62
2023/09/16 03:53:50;;;;;;;2.10;1.90;;;;;24.10;100278.00;;;;2590707;22;20201;-62
2023/09/16 03:54:50;;;;;;;1.87;1.60;;;;;24.10;100285.00;;;;2576962;23;20192;-62
2023/09/16 03:55:53;;;;;;;1.83;1.63;;;;;24.10;100276.00;;;;2562631;22;20200;-62
2023/09/16 03:56:54;;;;;;;2.17;1.90;;;;;24.10;100278.00;;;;2589884;22;20202;-63
2023/09/16 03:57:54;;;;;;;2.20;1.93;;;;;24.10;100280.00;;;;2577048;23;20192;-63
2023/09/16 03:58:55;;;;;;;1.83;1.73;;;;;24.10;100269.00;;;;2576347;22;20192;-62
2023/09/16 03:59:55;;;;;;;2.30;2.10;;;;;24.10;100280.00;;;;2590471;22;20203;-62
2023/09/16 04:00:55;;;;;;;2.37;1.97;;;;;24.10;100278.00;;;;2572877;22;20271;-62
2023/09/16 04:01:56;;;;;;;2.03;1.83;;;;;24.10;100277.00;;;;2586755;22;20929;-62
2023/09/16 04:02:56;;;;;;;2.20;2.00;;;;;24.10;100276.00;;;;2590414;22;20618;-62
2023/09/16 04:03:57;;;;;;;2.50;2.30;;;;;24.10;100273.00;;;;2590557;22;20865;-62
2023/09/16 04:04:57;;;;;;;2.27;1.97;;;;;24.10;100274.00;;;;2574015;23;20196;-61
2023/09/16 04:06:01;;;;;;;2.20;1.90;;;;;24.10;100271.00;;;;2562959;23;20196;-62
2023/09/16 04:07:01;;;;;;;1.95;1.85;;;;;24.10;100266.00;;;;2589362;22;20195;-62
2023/09/16 04:08:02;;;;;;;2.70;2.20;;;;;24.10;100266.00;;;;2589806;22;20180;-62
2023/09/16 04:09:02;;;;;;;1.80;1.70;;;;;24.10;100271.00;;;;2575909;23;20242;-62
2023/09/16 04:10:03;;;;;;;1.70;1.60;;;;;24.10;100270.00;;;;2577274;23;20204;-62
2023/09/16 04:11:03;;;;;;;2.17;1.90;;;;;24.10;100271.00;;;;2561615;22;20196;-62
2023/09/16 04:12:04;;;;;;;2.33;1.90;;;;;24.10;100272.00;;;;2564899;23;20896;-62
2023/09/16 04:13:04;;;;;;;2.10;1.90;;;;;24.10;100266.00;;;;2577565;23;20200;-62
2023/09/16 04:14:05;;;;;;;1.93;1.73;;;;;24.10;100272.00;;;;2591328;22;20199;-62
2023/09/16 04:15:05;;;;;;;2.47;2.00;;;;;24.10;100278.00;;;;2591638;22;20653;-62
2023/09/16 04:16:06;;;;;;;2.00;1.80;;;;;24.10;100278.00;;;;2576154;22;20732;-62
2023/09/16 04:17:06;;;;;;;3.23;2.30;;;;;24.10;100278.00;;;;2577979;23;20657;-62
2023/09/16 04:18:06;;;;;;;2.30;2.10;;;;;24.10;100274.00;;;;2577524;23;20618;-62
2023/09/16 04:19:07;;;;;;;2.10;1.90;;;;;24.10;100276.00;;;;2577241;23;20246;-62
2023/09/16 04:20:07;;;;;;;2.50;1.97;;;;;24.10;100275.00;;;;2578309;23;20195;-62
2023/09/16 04:21:08;;;;;;;2.63;1.77;;;;;24.10;100279.00;;;;2574893;22;20203;-62
2023/09/16 04:22:08;;;;;;;2.00;1.80;;;;;24.10;100275.00;;;;2591091;22;20195;-62
2023/09/16 04:23:09;;;;;;;2.60;2.27;;;;;24.10;100274.00;;;;2590295;22;20633;-61
2023/09/16 04:24:11;;;;;;;1.70;1.60;;;;;24.10;100271.00;;;;2591689;22;20711;-62
2023/09/16 04:25:11;;;;;;;2.63;2.25;;;;;24.10;100269.00;;;;2591309;22;20192;-62
2023/09/16 04:26:15;;;;;;;2.10;1.90;;;;;24.10;100276.00;;;;2563496;23;20212;-62
2023/09/16 04:27:15;;;;;;;2.17;1.90;;;;;24.10;100277.00;;;;2573532;22;20215;-62
2023/09/16 04:28:15;;;;;;;2.00;1.80;;;;;24.10;100274.00;;;;2587956;22;20542;-62
2023/09/16 04:29:16;;;;;;;2.20;1.87;;;;;24.10;100270.00;;;;2590099;22;20191;-62
2023/09/16 04:30:16;;;;;;;2.50;2.30;;;;;24.10;100272.00;;;;2590748;22;20196;-62
2023/09/16 04:31:16;;;;;;;1.80;1.60;;;;;24.10;100270.00;;;;2575939;22;20199;-62
2023/09/16 04:32:17;;;;;;;2.30;2.00;;;;;24.10;100266.00;;;;2576596;22;20237;-62
2023/09/16 04:33:17;;;;;;;2.03;1.83;;;;;24.10;100277.00;;;;2590955;22;20196;-62
2023/09/16 04:34:18;;;;;;;2.27;2.07;;;;;24.10;100271.00;;;;2577837;22;20196;-62
2023/09/16 04:35:18;;;;;;;2.60;2.33;;;;;24.10;100266.00;;;;2577746;23;20728;-62
2023/09/16 04:36:19;;;;;;;2.40;1.90;;;;;24.10;100270.00;;;;2573864;22;20199;-62
2023/09/16 04:37:19;;;;;;;1.77;1.60;;;;;24.10;100276.00;;;;2588795;22;20207;-62
2023/09/16 04:38:20;;;;;;;2.43;2.10;;;;;24.10;100271.00;;;;2591064;22;20210;-62
2023/09/16 04:39:23;;;;;;;2.40;2.00;;;;;24.10;100275.00;;;;2589422;22;20257;-67
2023/09/16 04:40:24;;;;;;;2.20;2.00;;;;;24.10;100274.00;;;;2591756;22;20200;-62
2023/09/16 04:41:25;;;;;;;1.85;1.70;;;;;24.10;100276.00;;;;2576069;22;20634;-62
2023/09/16 04:42:30;;;;;;;3.03;2.30;;;;;24.10;100276.00;;;;2571505;23;20192;-61
2023/09/16 04:43:30;;;;;;;2.40;2.20;;;;;24.10;100271.00;;;;2578600;22;20204;-62
2023/09/16 04:44:36;;;;;;;2.50;2.30;;;;;24.10;100271.00;;;;2591296;22;20192;-62
2023/09/16 04:45:36;;;;;;;2.22;1.80;;;;;24.10;100270.00;;;;2591613;22;20194;-62
2023/09/16 04:46:36;;;;;;;2.57;1.90;;;;;24.10;100265.00;;;;2575949;22;20188;-62
2023/09/16 04:47:37;;;;;;;3.00;2.00;;;;;24.10;100269.00;;;;2591297;22;20200;-62
2023/09/16 04:48:37;;;;;;;2.17;1.97;;;;;24.10;100265.00;;;;2590026;22;20216;-62
2023/09/16 04:49:37;;;;;;;2.30;2.10;;;;;24.00;100267.00;;;;2590838;22;20192;-62
2023/09/16 04:50:38;;;;;;;1.80;1.67;;;;;24.10;100267.00;;;;2578124;23;20230;-62
2023/09/16 04:51:38;;;;;;;2.20;2.00;;;;;24.10;100269.00;;;;2563003;23;20441;-62
2023/09/16 04:52:39;;;;;;;1.97;1.77;;;;;24.10;100267.00;;;;2583711;22;20199;-62
2023/09/16 04:53:39;;;;;;;2.17;1.97;;;;;24.10;100274.00;;;;2577507;23;20263;-62
2023/09/16 04:54:40;;;;;;;2.47;2.10;;;;;24.10;100278.00;;;;2578356;23;20200;-62
2023/09/16 04:55:43;;;;;;;2.17;1.90;;;;;24.10;100269.00;;;;2591286;22;20226;-62
2023/09/16 04:56:44;;;;;;;2.20;1.98;;;;;24.10;100275.00;;;;2576128;22;20262;-62
2023/09/16 04:57:44;;;;;;;2.23;2.03;;;;;24.10;100276.00;;;;2590202;22;20573;-62
2023/09/16 04:58:44;;;;;;;2.27;2.03;;;;;24.10;100262.00;;;;2589678;22;20192;-62
2023/09/16 04:59:45;;;;;;;2.37;2.17;;;;;24.10;100273.00;;;;2590839;22;20218;-62
2023/09/16 05:00:45;;;;;;;2.23;1.90;;;;;24.10;100276.00;;;;2586339;22;20195;-63